Barkald — V7IM6 — position and weather

sailwx.info

Track history (hours):
 
Tides and Currents Weather Stations Pressure Air Temp Water Temp Dewpoint Dewpoint Depression Visibility Wind Speed Wind Dir Waves Ship Positions

Barkald

Last reported at 2014-Oct-15 22:33 UTC. Time now 2014-Oct-24 14:52 UTC.
Position N 35°60' W 005°29'.
Warning: this ship's position is 8 days out of date.

Length 189 m; draft 6.4 m.

MMSI: 538002409.

Date/timePositionNaut miles runAvg speedWind from/ knotsBaromVisibWave heightAir tempDewpointWater temp
2014-Oct-15 22:33N 35°60' W 005°29'9 9.2
2014-Oct-15 21:33N 36°07' W 005°22'1 0.9
2014-Oct-15 20:33N 36°08' W 005°22'0 0.1
2014-Oct-15 19:33N 36°08' W 005°22'0 0.1
2014-Oct-15 18:33N 36°08' W 005°22'0 0.1
2014-Oct-15 17:31N 36°08' W 005°22'0 0.1
2014-Oct-15 16:31N 36°08' W 005°22'0 0.1
2014-Oct-15 15:33N 36°08' W 005°22'0 0.1
2014-Oct-15 14:33N 36°08' W 005°22'0 0.0
2014-Oct-15 13:33N 36°08' W 005°22'0 0.1
2014-Oct-15 12:33N 36°08' W 005°22'1 1.0
2014-Oct-15 11:34N 36°07' W 005°22'3 3.3
2014-Oct-15 10:32N 36°05' W 005°19'2 2.3
2014-Oct-15 09:33N 36°06' W 005°16'5 5.2
2014-Oct-15 08:33N 36°07' W 005°10'1 0.5
2014-Oct-15 07:20N 36°07' W 005°09'1 0.8
2014-Oct-15 06:33N 36°07' W 005°10'1 0.4
2014-Oct-15 05:03N 36°07' W 005°09'  
2014-Oct-12 20:26N 37°39' E 008°16'1213.5
2014-Oct-12 19:33N 37°40' E 008°31'1313.4
2014-Oct-12 18:33N 37°42' E 008°47'1313.0
2014-Oct-12 17:32N 37°43' E 009°04'1313.1
2014-Oct-12 16:33N 37°42' E 009°20'1312.9
2014-Oct-12 15:33N 37°41' E 009°36'1312.8
2014-Oct-12 14:33N 37°40' E 009°52'1312.9
2014-Oct-12 13:33N 37°39' E 010°09'1312.9
2014-Oct-12 12:32N 37°38' E 010°25'1313.3
2014-Oct-12 11:33N 37°34' E 010°41'4613.6
2014-Oct-12 08:10N 37°16' E 011°34'2213.6
2014-Oct-12 06:31N 37°05' E 011°59'1313.8
2014-Oct-12 05:33N 37°00' E 012°14'1313.4
2014-Oct-12 04:33N 36°57' E 012°31'1913.7
2014-Oct-12 03:09N 36°51' E 012°53'1013.7
2014-Oct-12 02:25N 36°49' E 013°06'1213.6
2014-Oct-12 01:33N 36°46' E 013°20'1413.4
2014-Oct-12 00:33N 36°42' E 013°36'1313.1
2014-Oct-11 23:33N 36°39' E 013°52'1312.8
2014-Oct-11 22:33N 36°35' E 014°07'1312.8
2014-Oct-11 21:33N 36°31' E 014°22'1312.9
2014-Oct-11 20:33N 36°27' E 014°38'1412.9
2014-Oct-11 19:29N 36°27' E 014°55'1512.9
2014-Oct-11 18:18N 36°29' E 015°14'  
Track history (hours):
 
Tides and Currents Weather Stations Pressure Air Temp Water Temp Dewpoint Dewpoint Depression Visibility Wind Speed Wind Dir Waves Ship Positions

Barkald

Last reported at 2014-Oct-15 22:33 UTC. Time now 2014-Oct-24 14:52 UTC.
Position N 35°60' W 005°29'.
Warning: this ship's position is 8 days out of date.

Length 189 m; draft 6.4 m.

MMSI: 538002409.

Date/timePositionNaut miles runAvg speedWind from/ knotsBaromVisibWave heightAir tempDewpointWater temp
2014-Oct-15 22:33N 35°60' W 005°29'9 9.2
2014-Oct-15 21:33N 36°07' W 005°22'1 0.9
2014-Oct-15 20:33N 36°08' W 005°22'0 0.1
2014-Oct-15 19:33N 36°08' W 005°22'0 0.1
2014-Oct-15 18:33N 36°08' W 005°22'0 0.1
2014-Oct-15 17:31N 36°08' W 005°22'0 0.1
2014-Oct-15 16:31N 36°08' W 005°22'0 0.1
2014-Oct-15 15:33N 36°08' W 005°22'0 0.1
2014-Oct-15 14:33N 36°08' W 005°22'0 0.0
2014-Oct-15 13:33N 36°08' W 005°22'0 0.1
2014-Oct-15 12:33N 36°08' W 005°22'1 1.0
2014-Oct-15 11:34N 36°07' W 005°22'3 3.3
2014-Oct-15 10:32N 36°05' W 005°19'2 2.3
2014-Oct-15 09:33N 36°06' W 005°16'5 5.2
2014-Oct-15 08:33N 36°07' W 005°10'1 0.5
2014-Oct-15 07:20N 36°07' W 005°09'1 0.8
2014-Oct-15 06:33N 36°07' W 005°10'1 0.4
2014-Oct-15 05:03N 36°07' W 005°09'  
2014-Oct-12 20:26N 37°39' E 008°16'1213.5
2014-Oct-12 19:33N 37°40' E 008°31'1313.4
2014-Oct-12 18:33N 37°42' E 008°47'1313.0
2014-Oct-12 17:32N 37°43' E 009°04'1313.1
2014-Oct-12 16:33N 37°42' E 009°20'1312.9
2014-Oct-12 15:33N 37°41' E 009°36'1312.8
2014-Oct-12 14:33N 37°40' E 009°52'1312.9
2014-Oct-12 13:33N 37°39' E 010°09'1312.9
2014-Oct-12 12:32N 37°38' E 010°25'1313.3
2014-Oct-12 11:33N 37°34' E 010°41'4613.6
2014-Oct-12 08:10N 37°16' E 011°34'2213.6
2014-Oct-12 06:31N 37°05' E 011°59'1313.8
2014-Oct-12 05:33N 37°00' E 012°14'1313.4
2014-Oct-12 04:33N 36°57' E 012°31'1913.7
2014-Oct-12 03:09N 36°51' E 012°53'1013.7
2014-Oct-12 02:25N 36°49' E 013°06'1213.6
2014-Oct-12 01:33N 36°46' E 013°20'1413.4
2014-Oct-12 00:33N 36°42' E 013°36'1313.1
2014-Oct-11 23:33N 36°39' E 013°52'1312.8
2014-Oct-11 22:33N 36°35' E 014°07'1312.8
2014-Oct-11 21:33N 36°31' E 014°22'1312.9
2014-Oct-11 20:33N 36°27' E 014°38'1412.9
2014-Oct-11 19:29N 36°27' E 014°55'1512.9
2014-Oct-11 18:18N 36°29' E 015°14'  

Dump ship's entire track history